Terminal Aerodrome Forecast
Issued by NWS

Home | Current Version | Previous Version | Text Only | Print | Product List | Glossary On
Versions: 1 2 3 4 5 6 7 8 9 10 11 12 13 14 15 16 17 18
000
FTUS45 KABQ 240500
TAFAEG
TAF
KAEG 240537Z 2406/2506 32013KT P6SM SKC
     FM241200 33011KT P6SM SKC
     FM241800 28009G16KT P6SM SCT250
     FM250200 28008KT P6SM FEW250=

USA.gov is the U.S. government's official web portal to all federal, state and local government web resources and services.